KGON/GON METAR and TAF weather

Enter ICAO airport designator
Station Type Date Time Source
KGON METAR 2019/06/16 04:56 UTC NOAA

KGON 160456Z AUTO 22009KT 10SM BKN080 OVC110 19/14 A2995 RMK AO2 SLP141 T01940144 402330117


Station Type Date Time Source
KGON Decoded METAR 2019/06/16 04:56 UTC NOAA

GROTON/NEW LONDON AIRPORT , CT, United States (KGON) 41-20N 72-03W 3M
Jun 16, 2019 - 12:56 AM EDT / 2019.06.16 0456 UTC
Wind: from the SW (220 degrees) at 10 MPH (9 KT):0
Visibility: 10 mile(s):0
Sky conditions: overcast
Temperature: 66.9 F (19.4 C)
Dew Point: 57.9 F (14.4 C)
Relative Humidity: 72%
Pressure (altimeter): 29.95 in. Hg (1014 hPa)
ob: KGON 160456Z AUTO 22009KT 10SM BKN080 OVC110 19/14 A2995 RMK AO2 SLP141 T01940144 402330117
cycle: 5

Station Type Date Time Source
KGON TAF 2019/06/16 03:51 UTC NOAA

TAF
AMD KGON 160248Z 1603/1624 22010KT P6SM FEW150 BKN200
FM160700 22005KT P6SM VCSH BKN150
FM161400 21008KT P6SM BKN120
FM161900 20015G21KT P6SM SCT060 BKN100
FM162300 24008KT P6SM VCSH BKN060

Example: see airport list